createdAt,value
2022-10-10T00:00:31.159Z,94.70
2022-10-10T00:01:07.578Z,94.70
2022-10-10T00:01:41.953Z,94.70
2022-10-10T00:02:16.324Z,94.60
2022-10-10T00:02:52.500Z,94.60
2022-10-10T00:03:27.770Z,94.60
2022-10-10T00:04:02.383Z,94.60
2022-10-10T00:04:37.295Z,94.60
2022-10-10T00:05:12.838Z,94.60
2022-10-10T00:05:47.748Z,94.60
2022-10-10T00:06:22.834Z,94.60
2022-10-10T00:06:56.188Z,94.60
2022-10-10T00:07:30.733Z,94.60
2022-10-10T00:08:06.386Z,94.50
2022-10-10T00:08:40.682Z,94.50
2022-10-10T00:09:15.867Z,94.50
2022-10-10T00:09:52.216Z,94.50
2022-10-10T00:10:25.877Z,94.60
2022-10-10T00:11:03.578Z,94.50
2022-10-10T00:11:37.620Z,94.50
2022-10-10T00:12:10.944Z,94.60
2022-10-10T00:12:45.430Z,94.80
2022-10-10T00:13:18.695Z,94.60
2022-10-10T00:13:53.306Z,94.70
2022-10-10T00:14:32.369Z,94.80
2022-10-10T00:15:14.280Z,94.60
2022-10-10T00:15:49.060Z,94.60
2022-10-10T00:16:24.224Z,94.60
2022-10-10T00:16:58.672Z,94.70
2022-10-10T00:17:32.266Z,94.70
2022-10-10T00:18:08.405Z,94.70
2022-10-10T00:18:43.246Z,94.70
2022-10-10T00:19:18.375Z,94.70
2022-10-10T00:19:54.146Z,94.70
2022-10-10T00:20:28.055Z,94.70
2022-10-10T00:21:02.265Z,94.70
2022-10-10T00:21:37.755Z,94.70
2022-10-10T00:22:13.086Z,94.70
2022-10-10T00:22:48.309Z,94.70
2022-10-10T00:23:27.413Z,94.80
2022-10-10T00:24:01.262Z,94.80
2022-10-10T00:24:36.276Z,94.80
2022-10-10T00:25:13.763Z,94.80
2022-10-10T00:25:47.938Z,94.80
2022-10-10T00:26:21.947Z,94.70
2022-10-10T00:26:56.955Z,94.90
2022-10-10T00:27:31.431Z,94.70
2022-10-10T00:28:05.950Z,94.70
2022-10-10T00:28:41.532Z,94.70
2022-10-10T00:29:16.004Z,94.60
2022-10-10T00:29:50.716Z,94.60
2022-10-10T00:30:26.752Z,94.60
2022-10-10T00:31:01.672Z,94.50
2022-10-10T00:31:35.456Z,94.50
2022-10-10T00:32:12.082Z,94.50
2022-10-10T00:32:46.053Z,94.50
2022-10-10T00:33:19.966Z,94.50
2022-10-10T00:33:54.470Z,94.50
2022-10-10T00:34:33.407Z,94.50
2022-10-10T00:35:09.168Z,94.60
2022-10-10T00:35:44.739Z,94.60
2022-10-10T00:36:21.267Z,94.60
2022-10-10T00:36:56.263Z,94.50
2022-10-10T00:37:29.947Z,94.50
2022-10-10T00:38:05.817Z,94.50
2022-10-10T00:38:40.744Z,94.50
2022-10-10T00:39:14.635Z,94.40
2022-10-10T00:39:52.780Z,94.40
2022-10-10T00:40:27.788Z,94.40
2022-10-10T00:41:02.362Z,94.40
2022-10-10T00:41:37.315Z,94.40
2022-10-10T00:42:12.427Z,94.40
2022-10-10T00:42:45.739Z,94.40
2022-10-10T00:43:20.474Z,94.40
2022-10-10T00:44:08.483Z,94.40
2022-10-10T00:44:44.596Z,94.40
2022-10-10T00:45:28.696Z,94.40
2022-10-10T00:46:03.967Z,94.40
2022-10-10T00:46:39.635Z,94.50
2022-10-10T00:47:14.324Z,94.40
2022-10-10T00:47:51.009Z,94.40
2022-10-10T00:48:28.610Z,94.40
2022-10-10T00:49:11.544Z,94.40
2022-10-10T00:49:46.403Z,94.40
2022-10-10T00:50:21.957Z,94.50
2022-10-10T00:50:59.960Z,94.50
2022-10-10T00:51:34.170Z,94.50
2022-10-10T00:52:10.506Z,94.40
2022-10-10T00:52:47.967Z,94.40
2022-10-10T00:53:26.733Z,94.30
2022-10-10T00:54:04.469Z,94.30
2022-10-10T00:54:40.601Z,94.30
2022-10-10T00:55:15.749Z,94.30
2022-10-10T00:55:53.792Z,94.30
2022-10-10T00:56:31.783Z,94.20
2022-10-10T00:57:09.412Z,94.20
2022-10-10T00:57:44.862Z,94.20
2022-10-10T00:58:18.984Z,94.20
2022-10-10T00:58:57.335Z,94.30
2022-10-10T00:59:35.221Z,94.30
2022-10-10T01:00:17.111Z,94.30
2022-10-10T01:00:55.912Z,94.30
2022-10-10T01:01:30.063Z,94.40
2022-10-10T01:02:04.754Z,94.30
2022-10-10T01:02:38.556Z,94.30
2022-10-10T01:03:13.391Z,94.30
2022-10-10T01:03:48.744Z,94.30
2022-10-10T01:04:34.544Z,94.50
2022-10-10T01:05:10.961Z,94.30
2022-10-10T01:05:45.356Z,94.30
2022-10-10T01:06:19.559Z,94.30
2022-10-10T01:06:54.605Z,94.30
2022-10-10T01:07:31.268Z,94.30
2022-10-10T01:08:07.689Z,94.20
2022-10-10T01:08:45.109Z,94.20
2022-10-10T01:09:19.575Z,94.20
2022-10-10T01:09:57.839Z,94.20
2022-10-10T01:10:37.881Z,94.20
2022-10-10T01:11:27.377Z,94.20
2022-10-10T01:12:18.726Z,94.10
2022-10-10T01:13:08.395Z,94.10
2022-10-10T01:13:54.394Z,94.20
2022-10-10T01:14:36.489Z,94.20
2022-10-10T01:15:19.046Z,94.20
2022-10-10T01:16:01.661Z,94.20
2022-10-10T01:16:45.641Z,94.20
2022-10-10T01:17:29.278Z,94.20
2022-10-10T01:18:13.033Z,94.30
2022-10-10T01:18:55.494Z,94.30
2022-10-10T01:20:05.990Z,94.40
2022-10-10T01:20:56.993Z,94.30
2022-10-10T01:21:39.691Z,94.30
2022-10-10T01:22:27.308Z,94.30
2022-10-10T01:23:27.008Z,94.20
2022-10-10T01:24:42.613Z,94.20
2022-10-10T01:25:28.853Z,94.10
2022-10-10T01:26:21.870Z,94.10
2022-10-10T01:27:16.786Z,94.10
2022-10-10T01:27:54.538Z,94.10
2022-10-10T01:28:42.086Z,94.00
2022-10-10T01:29:24.476Z,94.00
2022-10-10T01:30:02.084Z,94.00
2022-10-10T01:30:38.856Z,94.00
2022-10-10T01:31:14.847Z,93.90
2022-10-10T01:31:52.144Z,93.90
2022-10-10T01:32:32.566Z,94.20
2022-10-10T01:33:11.771Z,93.90
2022-10-10T01:33:54.156Z,93.90
2022-10-10T01:34:38.281Z,93.80
2022-10-10T01:35:38.374Z,93.80
2022-10-10T01:36:18.125Z,93.80
2022-10-10T01:36:59.592Z,93.70
2022-10-10T01:37:42.670Z,93.70
2022-10-10T01:38:31.531Z,93.60
2022-10-10T01:39:13.473Z,93.60
2022-10-10T01:39:54.705Z,93.60
2022-10-10T01:40:34.117Z,93.60
2022-10-10T01:41:12.311Z,93.50
2022-10-10T01:41:53.693Z,93.50
2022-10-10T01:42:34.004Z,93.50
2022-10-10T01:43:10.319Z,93.50
2022-10-10T01:43:46.819Z,93.40
2022-10-10T01:44:23.682Z,93.40
2022-10-10T01:44:59.134Z,93.40
2022-10-10T01:45:34.196Z,93.30
2022-10-10T01:46:11.797Z,93.30
2022-10-10T01:46:47.652Z,93.30
2022-10-10T01:47:24.368Z,93.30
2022-10-10T01:48:02.168Z,93.30
2022-10-10T01:48:37.368Z,93.30
2022-10-10T01:49:12.534Z,93.30
2022-10-10T01:49:49.611Z,93.30
2022-10-10T01:50:27.595Z,93.30
2022-10-10T01:51:21.899Z,93.30
2022-10-10T01:52:08.395Z,93.20
2022-10-10T01:52:53.611Z,93.20
2022-10-10T01:53:37.772Z,93.20
2022-10-10T01:54:27.251Z,93.10
2022-10-10T01:55:32.701Z,93.00
2022-10-10T01:56:13.172Z,93.00
2022-10-10T01:57:00.076Z,93.00
2022-10-10T01:57:42.547Z,93.00
2022-10-10T01:58:34.765Z,93.00
2022-10-10T01:59:20.956Z,93.00
2022-10-10T02:00:07.823Z,93.00
2022-10-10T02:00:59.440Z,93.00
2022-10-10T02:01:41.419Z,93.00
2022-10-10T02:02:27.039Z,93.00
2022-10-10T02:03:12.830Z,92.90
2022-10-10T08:07:34.533Z,58.10
2022-10-10T08:08:51.215Z,58.50
2022-10-10T08:09:28.138Z,57.80
2022-10-10T08:45:06.707Z,42.50
2022-10-10T08:45:46.220Z,42.10
2022-10-10T08:46:27.377Z,42.20
2022-10-10T08:52:08.326Z,43.90
2022-10-10T08:52:49.759Z,44.40
2022-10-10T08:53:32.808Z,45.00
2022-10-10T08:54:11.996Z,45.40
2022-10-10T08:54:49.754Z,46.10
2022-10-10T08:55:28.377Z,46.30
2022-10-10T08:56:04.612Z,46.20
2022-10-10T08:56:40.355Z,46.50
2022-10-10T08:57:24.645Z,46.70
2022-10-10T08:58:03.235Z,47.00
2022-10-10T08:58:41.650Z,46.70
2022-10-10T08:59:22.307Z,46.60
2022-10-10T11:25:15.032Z,50.40
2022-10-10T11:25:55.748Z,51.90
2022-10-10T11:26:33.738Z,52.40
2022-10-10T11:27:13.943Z,52.20
2022-10-10T11:27:54.475Z,52.20
2022-10-10T11:49:54.300Z,52.00
2022-10-10T11:50:31.377Z,54.40
2022-10-10T11:51:24.516Z,54.00
2022-10-10T11:55:42.818Z,54.20
2022-10-10T11:56:25.493Z,54.20
2022-10-10T11:57:10.694Z,54.30
2022-10-10T11:57:54.114Z,54.10
2022-10-10T11:58:39.794Z,54.10
2022-10-10T11:59:21.895Z,54.30
2022-10-10T12:00:02.209Z,54.50
2022-10-10T12:00:52.954Z,54.60
2022-10-10T12:01:32.105Z,54.60
2022-10-10T12:02:18.114Z,54.50
2022-10-10T12:02:55.166Z,54.70
2022-10-10T12:03:30.187Z,55.10
2022-10-10T12:04:04.952Z,55.30
2022-10-10T12:04:42.372Z,55.10
2022-10-10T12:05:24.253Z,55.20
2022-10-10T12:06:03.926Z,55.40
2022-10-10T12:06:42.396Z,55.50
2022-10-10T12:07:23.697Z,55.50
2022-10-10T12:08:07.589Z,55.50
2022-10-10T12:08:47.359Z,55.30
2022-10-10T12:09:28.530Z,55.20
2022-10-10T12:10:10.305Z,55.20
2022-10-10T12:10:52.349Z,55.40
2022-10-10T12:11:32.655Z,56.20
2022-10-10T12:12:14.484Z,55.90
2022-10-10T12:12:51.693Z,55.70
2022-10-10T12:13:30.839Z,55.50
2022-10-10T23:30:00.412Z,84.60
2022-10-10T23:30:34.408Z,85.00
2022-10-10T23:31:11.093Z,84.90
2022-10-10T23:31:46.396Z,84.90
2022-10-10T23:32:20.887Z,84.80
2022-10-10T23:32:56.346Z,84.70
2022-10-10T23:33:34.584Z,84.70
2022-10-10T23:34:10.474Z,84.80
2022-10-10T23:34:45.409Z,84.80
2022-10-10T23:35:20.533Z,84.80
2022-10-10T23:36:00.045Z,84.80
2022-10-10T23:36:34.155Z,84.80
2022-10-10T23:37:07.264Z,84.80
2022-10-10T23:37:42.577Z,84.80
2022-10-10T23:38:17.520Z,84.90
2022-10-10T23:38:52.200Z,84.90
2022-10-10T23:39:28.302Z,84.90
2022-10-10T23:40:03.220Z,84.90
2022-10-10T23:40:38.145Z,84.90
2022-10-10T23:41:16.388Z,84.90
2022-10-10T23:41:51.341Z,84.90
2022-10-10T23:42:25.839Z,85.00
2022-10-10T23:43:01.985Z,84.90
2022-10-10T23:43:35.360Z,84.90
2022-10-10T23:44:09.701Z,85.00
2022-10-10T23:44:45.882Z,85.10
2022-10-10T23:45:20.555Z,85.10
2022-10-10T23:45:54.819Z,85.30
2022-10-10T23:46:31.700Z,85.30
2022-10-10T23:47:05.679Z,85.30
2022-10-10T23:47:38.849Z,85.20
2022-10-10T23:48:14.486Z,85.20
2022-10-10T23:48:48.945Z,85.20
2022-10-10T23:49:23.342Z,85.20
2022-10-10T23:49:59.659Z,85.20
2022-10-10T23:50:34.028Z,85.30
2022-10-10T23:51:08.556Z,85.30
2022-10-10T23:51:44.048Z,85.40
2022-10-10T23:52:18.149Z,85.80
2022-10-10T23:52:51.785Z,85.60
2022-10-10T23:53:26.721Z,85.70
2022-10-10T23:53:59.598Z,85.90
2022-10-10T23:54:33.533Z,86.00
2022-10-10T23:55:09.794Z,86.00
2022-10-10T23:55:43.268Z,86.00
2022-10-10T23:56:21.489Z,85.90
2022-10-10T23:56:56.382Z,85.90
2022-10-10T23:57:30.769Z,85.90
2022-10-10T23:58:05.297Z,85.90
2022-10-10T23:58:40.932Z,85.90
2022-10-10T23:59:15.056Z,85.90
2022-10-10T23:59:50.131Z,85.90
